createdAt,value
2023-01-21T00:03:08.802Z,98511.17
2023-01-21T00:08:10.433Z,98508.55
2023-01-21T00:13:16.517Z,98510.42
2023-01-21T00:18:18.311Z,98513.73
2023-01-21T00:23:20.211Z,98511.38
2023-01-21T00:28:22.361Z,98510.09
2023-01-21T00:33:24.267Z,98510.09
2023-01-21T00:38:26.096Z,98513.05
2023-01-21T00:43:28.247Z,98513.92
2023-01-21T00:48:34.597Z,98514.60
2023-01-21T00:53:41.926Z,98517.48
2023-01-21T00:58:43.674Z,98527.01
2023-01-21T01:03:47.112Z,98525.61
2023-01-21T01:08:49.839Z,98526.68
2023-01-21T01:13:52.147Z,98531.10
2023-01-21T01:18:54.173Z,98533.58
2023-01-21T01:23:57.700Z,98534.91
2023-01-21T01:29:00.442Z,98540.69
2023-01-21T01:34:02.219Z,98542.49
2023-01-21T01:39:05.238Z,98547.23
2023-01-21T01:44:45.778Z,98553.23
2023-01-21T01:49:48.369Z,98551.05
2023-01-21T01:54:54.905Z,98551.92
2023-01-21T01:59:57.173Z,98549.60
2023-01-21T02:05:04.583Z,98540.55
2023-01-21T02:10:11.867Z,98545.73
2023-01-21T02:15:13.578Z,98548.22
2023-01-21T02:20:33.856Z,98545.51
2023-01-21T02:25:55.144Z,98538.65
2023-01-21T02:31:10.581Z,98541.30
2023-01-21T02:36:43.444Z,98535.14
2023-01-21T02:42:06.503Z,98534.60
2023-01-21T02:47:38.216Z,98537.61
2023-01-21T02:52:39.938Z,98542.10
2023-01-21T02:57:44.670Z,98539.20
2023-01-21T03:03:20.271Z,98533.15
2023-01-21T03:08:30.519Z,98535.63
2023-01-21T03:14:00.793Z,98532.48
2023-01-21T03:19:06.730Z,98533.73
2023-01-21T03:24:11.027Z,98536.35
2023-01-21T03:29:17.559Z,98534.26
2023-01-21T03:34:20.285Z,98533.35
2023-01-21T03:39:42.763Z,98527.70
2023-01-21T03:44:46.119Z,98527.26
2023-01-21T03:49:52.325Z,98528.64
2023-01-21T03:54:54.455Z,98527.89
2023-01-21T03:59:56.350Z,98538.86
2023-01-21T04:04:58.421Z,98545.38
2023-01-21T04:10:00.165Z,98544.11
2023-01-21T04:15:05.068Z,98543.73
2023-01-21T04:20:08.219Z,98546.55
2023-01-21T04:25:10.114Z,98554.91
2023-01-21T04:30:12.011Z,98547.20
2023-01-21T04:35:13.826Z,98538.25
2023-01-21T04:40:15.929Z,98535.98
2023-01-21T04:45:17.967Z,98534.04
2023-01-21T04:50:19.782Z,98532.83
2023-01-21T04:55:21.486Z,98535.63
2023-01-21T05:00:23.515Z,98537.07
2023-01-21T05:05:25.308Z,98534.18
2023-01-21T05:10:27.121Z,98533.05
2023-01-21T05:15:29.215Z,98539.25
2023-01-21T05:20:31.035Z,98538.64
2023-01-21T05:25:32.652Z,98544.44
2023-01-21T05:30:34.434Z,98549.55
2023-01-21T05:35:36.150Z,98550.08
2023-01-21T05:40:37.965Z,98546.05
2023-01-21T05:45:39.658Z,98547.59
2023-01-21T05:50:41.260Z,98547.94
2023-01-21T05:55:43.112Z,98547.64
2023-01-21T06:00:56.423Z,98543.38
2023-01-21T06:05:58.192Z,98537.04
2023-01-21T06:11:00.025Z,98534.41
2023-01-21T06:16:01.902Z,98539.45
2023-01-21T06:21:03.741Z,98536.35
2023-01-21T06:26:05.485Z,98528.58
2023-01-21T06:31:07.354Z,98534.14
2023-01-21T06:36:09.444Z,98533.23
2023-01-21T06:41:11.557Z,98536.68
2023-01-21T06:46:13.874Z,98542.17
2023-01-21T06:51:15.681Z,98546.99
2023-01-21T06:56:17.658Z,98558.33
2023-01-21T07:01:19.353Z,98561.41
2023-01-21T07:06:22.465Z,98568.41
2023-01-21T07:11:28.262Z,98568.45
2023-01-21T07:16:30.023Z,98571.70
2023-01-21T07:21:31.868Z,98575.80
2023-01-21T07:26:37.850Z,98579.02
2023-01-21T07:31:39.799Z,98583.58
2023-01-21T07:36:41.669Z,98581.33
2023-01-21T07:41:46.161Z,98585.29
2023-01-21T07:46:47.837Z,98582.69
2023-01-21T07:51:49.454Z,98587.35
2023-01-21T07:56:51.133Z,98588.77
2023-01-21T08:01:53.080Z,98591.47
2023-01-21T08:06:57.155Z,98590.13
2023-01-21T08:11:59.073Z,98601.08
2023-01-21T08:17:01.478Z,98603.52
2023-01-21T08:22:03.303Z,98606.31
2023-01-21T08:27:05.044Z,98609.11
2023-01-21T08:32:06.818Z,98608.94
2023-01-21T08:37:08.552Z,98606.54
2023-01-21T08:42:10.197Z,98614.02
2023-01-21T08:47:11.898Z,98619.05
2023-01-21T08:52:13.598Z,98620.33
2023-01-21T08:57:15.430Z,98617.84
2023-01-21T09:02:17.146Z,98623.60
2023-01-21T09:07:19.005Z,98626.98
2023-01-21T09:12:20.959Z,98620.21
2023-01-21T09:17:23.352Z,98625.57
2023-01-21T09:22:25.118Z,98626.05
2023-01-21T09:27:28.274Z,98629.02
2023-01-21T09:32:34.201Z,98633.05
2023-01-21T09:37:36.025Z,98637.39
2023-01-21T09:42:37.759Z,98637.90
2023-01-21T09:47:43.753Z,98644.92
2023-01-21T09:52:48.759Z,98650.92
2023-01-21T09:58:20.143Z,98651.23
2023-01-21T10:03:36.230Z,98653.23
2023-01-21T10:08:48.951Z,98653.28
2023-01-21T10:13:56.559Z,98650.45
2023-01-21T10:19:01.310Z,98651.92
2023-01-21T10:24:11.939Z,98649.30
2023-01-21T10:29:18.950Z,98648.89
2023-01-21T10:34:20.697Z,98646.18
2023-01-21T10:39:31.334Z,98641.71
2023-01-21T10:44:53.162Z,98642.08
2023-01-21T10:50:00.658Z,98631.33
2023-01-21T10:55:17.692Z,98635.16
2023-01-21T11:00:33.558Z,98636.05
2023-01-21T11:05:35.744Z,98638.73
2023-01-21T11:10:39.976Z,98640.72
2023-01-21T11:15:53.286Z,98632.55
2023-01-21T11:20:59.225Z,98633.39
2023-01-21T11:26:04.211Z,98634.45
2023-01-21T11:31:27.196Z,98627.83
2023-01-21T11:36:29.255Z,98619.42
2023-01-21T11:41:31.869Z,98619.83
2023-01-21T11:46:39.524Z,98626.27
2023-01-21T11:51:44.807Z,98629.53
2023-01-21T11:56:56.469Z,98631.13
2023-01-21T12:02:03.670Z,98628.96
2023-01-21T12:07:05.726Z,98626.73
2023-01-21T12:12:56.620Z,98624.20
2023-01-21T12:18:20.547Z,98624.35
2023-01-21T12:23:40.959Z,98624.45
2023-01-21T12:28:48.880Z,98628.34
2023-01-21T12:33:57.947Z,98631.02
2023-01-21T12:39:16.713Z,98630.08
2023-01-21T12:44:27.299Z,98634.52
2023-01-21T12:49:53.774Z,98629.76
2023-01-21T12:55:23.279Z,98636.46
2023-01-21T13:00:29.382Z,98638.33
2023-01-21T13:05:53.156Z,98644.55
2023-01-21T13:11:03.383Z,98647.58
2023-01-21T13:16:08.882Z,98660.28
2023-01-21T13:21:35.389Z,98670.42
2023-01-21T13:26:50.989Z,98677.30
2023-01-21T13:32:17.524Z,98691.84
2023-01-21T13:37:42.273Z,98703.39
2023-01-21T13:42:57.792Z,98712.43
2023-01-21T13:48:22.216Z,98717.86
2023-01-21T13:53:35.415Z,98726.73
2023-01-21T13:58:51.559Z,98731.70
2023-01-21T14:04:04.731Z,98738.38
2023-01-21T14:09:18.311Z,98742.47
2023-01-21T14:14:46.850Z,98741.52
2023-01-21T14:20:24.104Z,98742.09
2023-01-21T14:25:52.794Z,98745.71
2023-01-21T14:31:13.874Z,98750.44
2023-01-21T14:36:24.063Z,98757.38
2023-01-21T14:42:04.625Z,98763.14
2023-01-21T14:47:22.821Z,98771.48
2023-01-21T14:52:37.777Z,98779.16
2023-01-21T14:57:42.766Z,98776.42
2023-01-21T15:02:53.336Z,98774.77
2023-01-21T15:08:07.290Z,98788.42
2023-01-21T15:13:34.298Z,98800.48
2023-01-21T15:18:39.240Z,98806.02
2023-01-21T15:23:43.950Z,98812.50
2023-01-21T15:28:55.907Z,98819.55
2023-01-21T15:34:01.813Z,98826.08
2023-01-21T15:39:13.833Z,98829.42
2023-01-21T15:44:18.506Z,98843.08
2023-01-21T15:49:38.456Z,98857.36
2023-01-21T15:54:52.452Z,98867.00
2023-01-21T16:00:22.303Z,98883.90
2023-01-21T16:05:36.450Z,98891.40
2023-01-21T16:11:15.770Z,98898.70
2023-01-21T16:16:32.385Z,98901.44
2023-01-21T16:21:36.454Z,98908.39
2023-01-21T16:26:38.129Z,98913.44
2023-01-21T16:31:59.938Z,98918.90
2023-01-21T16:37:06.312Z,98920.97
2023-01-21T16:42:23.600Z,98930.12
2023-01-21T16:47:33.458Z,98936.93
2023-01-21T16:52:35.567Z,98939.16
2023-01-21T16:57:37.551Z,98937.10
2023-01-21T17:02:39.361Z,98943.50
2023-01-21T17:07:51.978Z,98943.77
2023-01-21T17:12:58.588Z,98948.36
2023-01-21T17:18:01.005Z,98951.74
2023-01-21T17:23:07.769Z,98954.41
2023-01-21T17:28:29.127Z,98958.70
2023-01-21T17:33:31.141Z,98969.70
2023-01-21T17:38:39.702Z,98977.32
2023-01-21T17:43:49.191Z,98990.20
2023-01-21T17:48:54.860Z,99002.86
2023-01-21T17:54:03.928Z,99009.06
2023-01-21T17:59:34.569Z,99012.42
2023-01-21T18:04:36.314Z,99019.16
2023-01-21T18:09:38.203Z,99025.34
2023-01-21T18:14:40.925Z,99036.21
2023-01-21T18:19:42.842Z,99044.55
2023-01-21T18:24:44.645Z,99050.83
2023-01-21T18:29:48.035Z,99074.71
2023-01-21T18:34:49.757Z,99081.84
2023-01-21T18:39:51.435Z,99085.20
2023-01-21T18:44:53.229Z,99091.83
2023-01-21T18:49:54.994Z,99096.90
2023-01-21T18:54:58.320Z,99102.96
2023-01-21T19:00:00.228Z,99104.86
2023-01-21T19:05:02.081Z,99105.89
2023-01-21T19:10:04.271Z,99109.67
2023-01-21T19:15:08.676Z,99110.49
2023-01-21T19:20:20.268Z,99116.73
2023-01-21T19:25:25.615Z,99126.11
2023-01-21T19:30:32.396Z,99129.77
2023-01-21T19:35:59.730Z,99123.90
2023-01-21T19:41:01.746Z,99122.98
2023-01-21T19:46:03.550Z,99130.18
2023-01-21T19:51:05.590Z,99137.45
2023-01-21T19:56:23.268Z,99150.21
2023-01-21T20:01:25.035Z,99161.89
2023-01-21T20:06:30.087Z,99158.73
2023-01-21T20:11:31.937Z,99164.77
2023-01-21T20:16:34.042Z,99168.15
2023-01-21T20:21:40.115Z,99174.91
2023-01-21T20:26:44.737Z,99188.66
2023-01-21T20:31:46.531Z,99193.38
2023-01-21T20:36:49.686Z,99195.23
2023-01-21T20:41:51.434Z,99198.80
2023-01-21T20:46:54.308Z,99210.19
2023-01-21T20:51:56.102Z,99223.56
2023-01-21T20:56:57.846Z,99238.15
2023-01-21T21:01:59.581Z,99239.27
2023-01-21T21:07:01.263Z,99240.83
2023-01-21T21:12:03.101Z,99245.63
2023-01-21T21:17:09.828Z,99253.80
2023-01-21T21:22:11.560Z,99259.45
2023-01-21T21:27:13.429Z,99261.55
2023-01-21T21:32:15.237Z,99257.89
2023-01-21T21:37:16.966Z,99273.02
2023-01-21T21:42:37.227Z,99278.55
2023-01-21T21:47:57.521Z,99274.56
2023-01-21T21:52:59.210Z,99285.07
2023-01-21T21:58:00.902Z,99285.56
2023-01-21T22:03:02.861Z,99286.34
2023-01-21T22:08:04.739Z,99295.15
2023-01-21T22:13:09.218Z,99299.27
2023-01-21T22:18:10.811Z,99296.25
2023-01-21T22:23:12.521Z,99293.38
2023-01-21T22:28:14.291Z,99294.74
2023-01-21T22:33:16.413Z,99292.80
2023-01-21T22:38:19.492Z,99300.23
2023-01-21T22:43:21.300Z,99300.19
2023-01-21T22:48:23.741Z,99299.99
2023-01-21T22:53:26.650Z,99302.50
2023-01-21T22:58:30.437Z,99307.50
2023-01-21T23:03:32.969Z,99315.86
2023-01-21T23:08:37.753Z,99315.30
2023-01-21T23:13:39.827Z,99318.68
2023-01-21T23:18:42.211Z,99320.28
2023-01-21T23:23:44.381Z,99320.36
2023-01-21T23:28:47.221Z,99316.65
2023-01-21T23:33:54.571Z,99325.53
2023-01-21T23:38:56.291Z,99330.88
2023-01-21T23:44:01.860Z,99325.79
2023-01-21T23:49:03.626Z,99332.22
2023-01-21T23:54:05.471Z,99340.35
2023-01-21T23:59:07.739Z,99341.94
